sensor_id;sensor_type;location;lat;lon;timestamp;temperature;humidity
2010;DHT22;1008;47.404;8.502;2023-12-04T00:01:43;-2.90;99.90
2010;DHT22;1008;47.404;8.502;2023-12-04T00:04:10;-3.00;99.90
2010;DHT22;1008;47.404;8.502;2023-12-04T00:06:38;-3.30;99.90
2010;DHT22;1008;47.404;8.502;2023-12-04T00:09:05;-3.20;99.90
2010;DHT22;1008;47.404;8.502;2023-12-04T00:11:32;-3.20;99.90
2010;DHT22;1008;47.404;8.502;2023-12-04T00:13:58;-3.20;99.90
2010;DHT22;1008;47.404;8.502;2023-12-04T00:16:25;-3.30;99.90
2010;DHT22;1008;47.404;8.502;2023-12-04T00:18:52;-3.20;99.90
2010;DHT22;1008;47.404;8.502;2023-12-04T00:21:19;-3.20;99.90
2010;DHT22;1008;47.404;8.502;2023-12-04T00:23:47;-3.10;99.90
2010;DHT22;1008;47.404;8.502;2023-12-04T00:26:15;-2.90;99.90
2010;DHT22;1008;47.404;8.502;2023-12-04T00:28:41;-2.80;99.90
2010;DHT22;1008;47.404;8.502;2023-12-04T00:31:08;-2.60;99.90
2010;DHT22;1008;47.404;8.502;2023-12-04T00:33:36;-2.60;99.90
2010;DHT22;1008;47.404;8.502;2023-12-04T00:36:03;-2.80;99.90
2010;DHT22;1008;47.404;8.502;2023-12-04T00:38:30;-3.30;99.90
2010;DHT22;1008;47.404;8.502;2023-12-04T00:40:58;-3.20;99.90
2010;DHT22;1008;47.404;8.502;2023-12-04T00:43:25;-3.30;99.90
2010;DHT22;1008;47.404;8.502;2023-12-04T00:45:51;-3.20;99.90
2010;DHT22;1008;47.404;8.502;2023-12-04T00:48:18;-3.20;99.90
2010;DHT22;1008;47.404;8.502;2023-12-04T00:50:45;-3.20;99.90
2010;DHT22;1008;47.404;8.502;2023-12-04T00:53:12;-3.20;99.90
2010;DHT22;1008;47.404;8.502;2023-12-04T00:55:38;-3.30;99.90
2010;DHT22;1008;47.404;8.502;2023-12-04T00:58:07;-3.30;99.90
2010;DHT22;1008;47.404;8.502;2023-12-04T01:00:33;-3.10;99.90
2010;DHT22;1008;47.404;8.502;2023-12-04T01:03:00;-2.90;99.90
2010;DHT22;1008;47.404;8.502;2023-12-04T01:05:27;-2.80;99.90
2010;DHT22;1008;47.404;8.502;2023-12-04T01:07:53;-2.70;99.90
2010;DHT22;1008;47.404;8.502;2023-12-04T01:10:20;-3.00;99.90
2010;DHT22;1008;47.404;8.502;2023-12-04T01:12:47;-2.90;99.90
2010;DHT22;1008;47.404;8.502;2023-12-04T01:15:15;-2.70;99.90
2010;DHT22;1008;47.404;8.502;2023-12-04T01:17:42;-2.70;99.90
2010;DHT22;1008;47.404;8.502;2023-12-04T01:20:09;-2.50;99.90
2010;DHT22;1008;47.404;8.502;2023-12-04T01:22:36;-2.40;99.90
2010;DHT22;1008;47.404;8.502;2023-12-04T01:25:03;-2.30;99.90
2010;DHT22;1008;47.404;8.502;2023-12-04T01:27:30;-2.30;99.90
2010;DHT22;1008;47.404;8.502;2023-12-04T01:29:57;-2.40;99.90
2010;DHT22;1008;47.404;8.502;2023-12-04T01:32:25;-2.50;99.90
2010;DHT22;1008;47.404;8.502;2023-12-04T01:34:52;-2.50;99.90
2010;DHT22;1008;47.404;8.502;2023-12-04T01:37:18;-2.40;99.90
2010;DHT22;1008;47.404;8.502;2023-12-04T01:39:45;-2.60;99.90
2010;DHT22;1008;47.404;8.502;2023-12-04T01:42:12;-2.60;99.90
2010;DHT22;1008;47.404;8.502;2023-12-04T01:44:38;-2.80;99.90
2010;DHT22;1008;47.404;8.502;2023-12-04T01:47:05;-2.80;99.90
2010;DHT22;1008;47.404;8.502;2023-12-04T01:49:34;-2.40;99.90
2010;DHT22;1008;47.404;8.502;2023-12-04T01:52:02;-2.50;99.90
2010;DHT22;1008;47.404;8.502;2023-12-04T01:54:29;-2.60;99.90
2010;DHT22;1008;47.404;8.502;2023-12-04T01:56:56;-2.60;99.90
2010;DHT22;1008;47.404;8.502;2023-12-04T01:59:24;-2.80;99.90
2010;DHT22;1008;47.404;8.502;2023-12-04T02:01:52;-2.70;99.90
2010;DHT22;1008;47.404;8.502;2023-12-04T02:04:19;-2.50;99.90
2010;DHT22;1008;47.404;8.502;2023-12-04T02:06:47;-2.50;99.90
2010;DHT22;1008;47.404;8.502;2023-12-04T02:09:14;-2.50;99.90
2010;DHT22;1008;47.404;8.502;2023-12-04T02:11:41;-2.40;99.90
2010;DHT22;1008;47.404;8.502;2023-12-04T02:14:08;-2.40;99.90
2010;DHT22;1008;47.404;8.502;2023-12-04T02:16:39;-2.30;99.90
2010;DHT22;1008;47.404;8.502;2023-12-04T02:19:07;-2.30;99.90
2010;DHT22;1008;47.404;8.502;2023-12-04T02:21:34;-2.40;99.90
2010;DHT22;1008;47.404;8.502;2023-12-04T02:24:02;-2.40;99.90
2010;DHT22;1008;47.404;8.502;2023-12-04T02:26:34;-2.50;99.90
2010;DHT22;1008;47.404;8.502;2023-12-04T02:29:05;-2.40;99.90
2010;DHT22;1008;47.404;8.502;2023-12-04T02:31:34;-2.50;99.90
2010;DHT22;1008;47.404;8.502;2023-12-04T02:34:05;-2.40;99.90
2010;DHT22;1008;47.404;8.502;2023-12-04T02:36:33;-2.30;99.90
2010;DHT22;1008;47.404;8.502;2023-12-04T02:39:00;-2.30;99.90
2010;DHT22;1008;47.404;8.502;2023-12-04T02:41:29;-2.20;99.90
2010;DHT22;1008;47.404;8.502;2023-12-04T02:43:56;-2.20;99.90
2010;DHT22;1008;47.404;8.502;2023-12-04T02:46:23;-2.30;99.90
2010;DHT22;1008;47.404;8.502;2023-12-04T02:48:49;-2.30;99.90
2010;DHT22;1008;47.404;8.502;2023-12-04T02:51:16;-2.30;99.90
2010;DHT22;1008;47.404;8.502;2023-12-04T02:53:43;-2.40;99.90
2010;DHT22;1008;47.404;8.502;2023-12-04T02:56:10;-2.50;99.90
2010;DHT22;1008;47.404;8.502;2023-12-04T02:58:39;-2.60;99.90
2010;DHT22;1008;47.404;8.502;2023-12-04T03:01:06;-2.40;99.90
2010;DHT22;1008;47.404;8.502;2023-12-04T03:03:32;-2.40;99.90
2010;DHT22;1008;47.404;8.502;2023-12-04T03:05:59;-2.40;99.90
2010;DHT22;1008;47.404;8.502;2023-12-04T03:08:26;-2.40;99.90
2010;DHT22;1008;47.404;8.502;2023-12-04T03:10:52;-2.50;99.90
2010;DHT22;1008;47.404;8.502;2023-12-04T03:13:19;-2.50;99.90
2010;DHT22;1008;47.404;8.502;2023-12-04T03:15:47;-2.40;99.90
2010;DHT22;1008;47.404;8.502;2023-12-04T03:18:14;-2.40;99.90
2010;DHT22;1008;47.404;8.502;2023-12-04T03:20:41;-2.50;99.90
2010;DHT22;1008;47.404;8.502;2023-12-04T03:23:07;-2.40;99.90
2010;DHT22;1008;47.404;8.502;2023-12-04T03:25:34;-2.40;99.90
2010;DHT22;1008;47.404;8.502;2023-12-04T03:28:01;-2.50;99.90
2010;DHT22;1008;47.404;8.502;2023-12-04T03:30:28;-2.70;99.90
2010;DHT22;1008;47.404;8.502;2023-12-04T03:32:56;-2.70;99.90
2010;DHT22;1008;47.404;8.502;2023-12-04T03:35:22;-2.60;99.90
2010;DHT22;1008;47.404;8.502;2023-12-04T03:37:49;-2.50;99.90
2010;DHT22;1008;47.404;8.502;2023-12-04T03:40:16;-2.80;99.90
2010;DHT22;1008;47.404;8.502;2023-12-04T03:42:43;-2.60;99.90
2010;DHT22;1008;47.404;8.502;2023-12-04T03:45:10;-2.50;99.90
2010;DHT22;1008;47.404;8.502;2023-12-04T03:47:36;-2.50;99.90
2010;DHT22;1008;47.404;8.502;2023-12-04T03:50:05;-2.60;99.90
2010;DHT22;1008;47.404;8.502;2023-12-04T03:52:32;-2.40;99.90
2010;DHT22;1008;47.404;8.502;2023-12-04T03:54:59;-2.30;99.90
2010;DHT22;1008;47.404;8.502;2023-12-04T03:57:26;-2.30;99.90
2010;DHT22;1008;47.404;8.502;2023-12-04T03:59:52;-2.40;99.90
2010;DHT22;1008;47.404;8.502;2023-12-04T04:02:19;-2.60;99.90
2010;DHT22;1008;47.404;8.502;2023-12-04T04:04:46;-2.50;99.90
2010;DHT22;1008;47.404;8.502;2023-12-04T04:07:16;-2.50;99.90
2010;DHT22;1008;47.404;8.502;2023-12-04T04:09:43;-2.50;99.90
2010;DHT22;1008;47.404;8.502;2023-12-04T04:12:10;-2.50;99.90
2010;DHT22;1008;47.404;8.502;2023-12-04T04:14:37;-2.50;99.90
2010;DHT22;1008;47.404;8.502;2023-12-04T04:17:03;-2.40;99.90
2010;DHT22;1008;47.404;8.502;2023-12-04T04:19:30;-2.40;99.90
2010;DHT22;1008;47.404;8.502;2023-12-04T04:21:57;-2.60;99.90
2010;DHT22;1008;47.404;8.502;2023-12-04T04:24:25;-2.60;99.90
2010;DHT22;1008;47.404;8.502;2023-12-04T04:26:52;-2.60;99.90
2010;DHT22;1008;47.404;8.502;2023-12-04T04:29:18;-2.60;99.90
2010;DHT22;1008;47.404;8.502;2023-12-04T04:31:45;-2.60;99.90
2010;DHT22;1008;47.404;8.502;2023-12-04T04:34:12;-2.50;99.90
2010;DHT22;1008;47.404;8.502;2023-12-04T04:36:38;-2.40;99.90
2010;DHT22;1008;47.404;8.502;2023-12-04T04:39:05;-2.60;99.90
2010;DHT22;1008;47.404;8.502;2023-12-04T04:41:33;-2.60;99.90
2010;DHT22;1008;47.404;8.502;2023-12-04T04:44:00;-2.60;99.90
2010;DHT22;1008;47.404;8.502;2023-12-04T04:46:26;-2.50;99.90
2010;DHT22;1008;47.404;8.502;2023-12-04T04:48:54;-2.50;99.90
2010;DHT22;1008;47.404;8.502;2023-12-04T04:51:21;-2.40;99.90
2010;DHT22;1008;47.404;8.502;2023-12-04T04:53:47;-2.30;99.90
2010;DHT22;1008;47.404;8.502;2023-12-04T04:56:15;-2.40;99.90
2010;DHT22;1008;47.404;8.502;2023-12-04T04:58:43;-2.40;99.90
2010;DHT22;1008;47.404;8.502;2023-12-04T05:01:09;-2.40;99.90
2010;DHT22;1008;47.404;8.502;2023-12-04T05:03:36;-2.50;99.90
2010;DHT22;1008;47.404;8.502;2023-12-04T05:06:04;-2.40;99.90
2010;DHT22;1008;47.404;8.502;2023-12-04T05:08:30;-2.50;99.90
2010;DHT22;1008;47.404;8.502;2023-12-04T05:10:57;-2.60;99.90
2010;DHT22;1008;47.404;8.502;2023-12-04T05:13:24;-2.60;99.90
2010;DHT22;1008;47.404;8.502;2023-12-04T05:15:52;-2.50;99.90
2010;DHT22;1008;47.404;8.502;2023-12-04T05:18:19;-2.40;99.90
2010;DHT22;1008;47.404;8.502;2023-12-04T05:20:45;-2.50;99.90
2010;DHT22;1008;47.404;8.502;2023-12-04T05:23:12;-2.60;99.90
2010;DHT22;1008;47.404;8.502;2023-12-04T05:25:39;-2.50;99.90
2010;DHT22;1008;47.404;8.502;2023-12-04T05:28:06;-2.40;99.90
2010;DHT22;1008;47.404;8.502;2023-12-04T05:30:32;-2.30;99.90
2010;DHT22;1008;47.404;8.502;2023-12-04T05:33:00;-2.40;99.90
2010;DHT22;1008;47.404;8.502;2023-12-04T05:35:27;-2.40;99.90
2010;DHT22;1008;47.404;8.502;2023-12-04T05:37:54;-2.40;99.90
2010;DHT22;1008;47.404;8.502;2023-12-04T05:40:21;-2.30;99.90
2010;DHT22;1008;47.404;8.502;2023-12-04T05:42:48;-2.30;99.90
2010;DHT22;1008;47.404;8.502;2023-12-04T05:45:14;-2.40;99.90
2010;DHT22;1008;47.404;8.502;2023-12-04T05:47:41;-2.40;99.90
2010;DHT22;1008;47.404;8.502;2023-12-04T05:50:10;-2.30;99.90
2010;DHT22;1008;47.404;8.502;2023-12-04T05:52:36;-2.30;99.90
2010;DHT22;1008;47.404;8.502;2023-12-04T05:55:04;-2.30;99.90
2010;DHT22;1008;47.404;8.502;2023-12-04T05:57:31;-2.20;99.90
2010;DHT22;1008;47.404;8.502;2023-12-04T05:59:57;-2.20;99.90
2010;DHT22;1008;47.404;8.502;2023-12-04T06:02:25;-2.40;99.90
2010;DHT22;1008;47.404;8.502;2023-12-04T06:04:53;-2.40;99.90
2010;DHT22;1008;47.404;8.502;2023-12-04T06:07:21;-2.40;99.90
2010;DHT22;1008;47.404;8.502;2023-12-04T06:09:48;-2.30;99.90
2010;DHT22;1008;47.404;8.502;2023-12-04T06:12:14;-2.30;99.90
2010;DHT22;1008;47.404;8.502;2023-12-04T06:14:41;-2.20;99.90
2010;DHT22;1008;47.404;8.502;2023-12-04T06:17:08;-2.30;99.90
2010;DHT22;1008;47.404;8.502;2023-12-04T06:19:34;-2.30;99.90
2010;DHT22;1008;47.404;8.502;2023-12-04T06:22:01;-2.20;99.90
2010;DHT22;1008;47.404;8.502;2023-12-04T06:24:31;-2.30;99.90
2010;DHT22;1008;47.404;8.502;2023-12-04T06:26:58;-2.40;99.90
2010;DHT22;1008;47.404;8.502;2023-12-04T06:29:25;-2.30;99.90
2010;DHT22;1008;47.404;8.502;2023-12-04T06:31:52;-1.90;99.90
2010;DHT22;1008;47.404;8.502;2023-12-04T06:34:20;-2.30;99.90
2010;DHT22;1008;47.404;8.502;2023-12-04T06:36:47;-2.30;99.90
2010;DHT22;1008;47.404;8.502;2023-12-04T06:39:16;-2.40;99.90
2010;DHT22;1008;47.404;8.502;2023-12-04T06:41:45;-2.60;99.90
2010;DHT22;1008;47.404;8.502;2023-12-04T06:44:14;-2.50;99.90
2010;DHT22;1008;47.404;8.502;2023-12-04T06:46:41;-2.60;99.90
2010;DHT22;1008;47.404;8.502;2023-12-04T06:49:13;-2.40;99.90
2010;DHT22;1008;47.404;8.502;2023-12-04T06:51:41;-2.50;99.90
2010;DHT22;1008;47.404;8.502;2023-12-04T06:54:08;-2.70;99.90
2010;DHT22;1008;47.404;8.502;2023-12-04T06:56:34;-2.60;99.90
2010;DHT22;1008;47.404;8.502;2023-12-04T06:59:02;-2.50;99.90
2010;DHT22;1008;47.404;8.502;2023-12-04T07:01:29;-2.40;99.90
2010;DHT22;1008;47.404;8.502;2023-12-04T07:03:56;-2.60;99.90
2010;DHT22;1008;47.404;8.502;2023-12-04T07:06:23;-2.70;99.90
2010;DHT22;1008;47.404;8.502;2023-12-04T07:08:50;-2.60;99.90
2010;DHT22;1008;47.404;8.502;2023-12-04T07:11:17;-2.90;99.90
2010;DHT22;1008;47.404;8.502;2023-12-04T07:13:43;-3.00;99.90
2010;DHT22;1008;47.404;8.502;2023-12-04T07:16:11;-2.80;99.90
2010;DHT22;1008;47.404;8.502;2023-12-04T07:18:38;-2.60;99.90
2010;DHT22;1008;47.404;8.502;2023-12-04T07:21:05;-2.90;99.90
2010;DHT22;1008;47.404;8.502;2023-12-04T07:23:32;-2.60;99.90
2010;DHT22;1008;47.404;8.502;2023-12-04T07:25:59;-2.50;99.90
2010;DHT22;1008;47.404;8.502;2023-12-04T07:28:25;-2.50;99.90
2010;DHT22;1008;47.404;8.502;2023-12-04T07:30:54;-2.60;99.90
2010;DHT22;1008;47.404;8.502;2023-12-04T07:33:22;-2.50;99.90
2010;DHT22;1008;47.404;8.502;2023-12-04T07:35:49;-2.40;99.90
2010;DHT22;1008;47.404;8.502;2023-12-04T07:38:16;-2.50;99.90
2010;DHT22;1008;47.404;8.502;2023-12-04T07:40:43;-2.40;99.90
2010;DHT22;1008;47.404;8.502;2023-12-04T07:43:10;-2.40;99.90
2010;DHT22;1008;47.404;8.502;2023-12-04T07:45:37;-2.30;99.90
2010;DHT22;1008;47.404;8.502;2023-12-04T07:48:04;-2.00;99.90
2010;DHT22;1008;47.404;8.502;2023-12-04T07:50:32;-2.30;99.90
2010;DHT22;1008;47.404;8.502;2023-12-04T07:52:59;-2.50;99.90
2010;DHT22;1008;47.404;8.502;2023-12-04T07:55:26;-2.40;99.90
2010;DHT22;1008;47.404;8.502;2023-12-04T07:57:52;-2.20;99.90
2010;DHT22;1008;47.404;8.502;2023-12-04T08:00:20;-2.40;99.90
2010;DHT22;1008;47.404;8.502;2023-12-04T08:02:48;-2.20;99.90
2010;DHT22;1008;47.404;8.502;2023-12-04T08:05:15;-2.50;99.90
2010;DHT22;1008;47.404;8.502;2023-12-04T08:07:43;-2.30;99.90
2010;DHT22;1008;47.404;8.502;2023-12-04T08:10:10;-2.20;99.90
2010;DHT22;1008;47.404;8.502;2023-12-04T08:12:37;-2.10;99.90
2010;DHT22;1008;47.404;8.502;2023-12-04T08:15:05;-1.90;99.90
2010;DHT22;1008;47.404;8.502;2023-12-04T08:17:32;-1.80;99.90
2010;DHT22;1008;47.404;8.502;2023-12-04T08:19:59;-1.70;99.90
2010;DHT22;1008;47.404;8.502;2023-12-04T08:22:26;-1.90;99.90
2010;DHT22;1008;47.404;8.502;2023-12-04T08:24:54;-1.70;99.90
2010;DHT22;1008;47.404;8.502;2023-12-04T08:27:21;-1.70;99.90
2010;DHT22;1008;47.404;8.502;2023-12-04T08:29:47;-1.80;99.90
2010;DHT22;1008;47.404;8.502;2023-12-04T08:32:14;-1.80;99.90
2010;DHT22;1008;47.404;8.502;2023-12-04T08:34:41;-1.60;99.90
2010;DHT22;1008;47.404;8.502;2023-12-04T08:37:08;-1.50;99.90
2010;DHT22;1008;47.404;8.502;2023-12-04T08:39:34;-1.40;99.90
2010;DHT22;1008;47.404;8.502;2023-12-04T08:42:03;-1.60;99.90
2010;DHT22;1008;47.404;8.502;2023-12-04T08:44:29;-1.50;99.90
2010;DHT22;1008;47.404;8.502;2023-12-04T08:46:56;-1.50;99.90
2010;DHT22;1008;47.404;8.502;2023-12-04T08:49:25;-1.60;99.90
2010;DHT22;1008;47.404;8.502;2023-12-04T08:51:52;-1.40;99.90
2010;DHT22;1008;47.404;8.502;2023-12-04T08:54:19;-1.40;99.90
2010;DHT22;1008;47.404;8.502;2023-12-04T08:56:45;-1.30;99.90
2010;DHT22;1008;47.404;8.502;2023-12-04T08:59:13;-1.20;99.90
2010;DHT22;1008;47.404;8.502;2023-12-04T09:01:40;-1.20;99.90
2010;DHT22;1008;47.404;8.502;2023-12-04T09:04:08;-1.40;99.90
2010;DHT22;1008;47.404;8.502;2023-12-04T09:06:34;-1.20;99.90
2010;DHT22;1008;47.404;8.502;2023-12-04T09:09:01;-1.20;99.90
2010;DHT22;1008;47.404;8.502;2023-12-04T09:11:28;-1.00;99.90
2010;DHT22;1008;47.404;8.502;2023-12-04T09:13:55;-1.10;99.90
2010;DHT22;1008;47.404;8.502;2023-12-04T09:16:23;-1.30;99.90
2010;DHT22;1008;47.404;8.502;2023-12-04T09:18:50;-1.30;99.90
2010;DHT22;1008;47.404;8.502;2023-12-04T09:21:18;-1.30;99.90
2010;DHT22;1008;47.404;8.502;2023-12-04T09:23:45;-1.00;99.90
2010;DHT22;1008;47.404;8.502;2023-12-04T09:26:15;-0.80;99.90
2010;DHT22;1008;47.404;8.502;2023-12-04T09:28:42;-0.70;99.90
2010;DHT22;1008;47.404;8.502;2023-12-04T09:31:08;-0.90;99.90
2010;DHT22;1008;47.404;8.502;2023-12-04T09:33:36;-0.90;99.90
2010;DHT22;1008;47.404;8.502;2023-12-04T09:36:04;-1.00;99.90
2010;DHT22;1008;47.404;8.502;2023-12-04T09:38:30;-0.70;99.90
2010;DHT22;1008;47.404;8.502;2023-12-04T09:40:59;-0.60;99.90
2010;DHT22;1008;47.404;8.502;2023-12-04T09:43:27;-0.50;99.90
2010;DHT22;1008;47.404;8.502;2023-12-04T09:45:54;-0.30;99.90
2010;DHT22;1008;47.404;8.502;2023-12-04T09:48:22;-0.40;99.90
2010;DHT22;1008;47.404;8.502;2023-12-04T09:50:52;-0.30;99.90
2010;DHT22;1008;47.404;8.502;2023-12-04T09:53:22;-0.30;99.90
2010;DHT22;1008;47.404;8.502;2023-12-04T09:55:55;-0.30;99.90
2010;DHT22;1008;47.404;8.502;2023-12-04T09:58:23;-0.40;99.90
2010;DHT22;1008;47.404;8.502;2023-12-04T10:00:52;-0.20;99.90
2010;DHT22;1008;47.404;8.502;2023-12-04T10:03:20;-0.10;99.90
2010;DHT22;1008;47.404;8.502;2023-12-04T10:05:48;0.00;99.90
2010;DHT22;1008;47.404;8.502;2023-12-04T10:08:16;0.00;99.90
2010;DHT22;1008;47.404;8.502;2023-12-04T10:10:43;-0.10;99.90
2010;DHT22;1008;47.404;8.502;2023-12-04T10:13:10;-0.10;99.90
2010;DHT22;1008;47.404;8.502;2023-12-04T10:15:46;-0.10;99.90
2010;DHT22;1008;47.404;8.502;2023-12-04T10:18:24;0.00;99.90
2010;DHT22;1008;47.404;8.502;2023-12-04T10:20:52;0.50;99.90
2010;DHT22;1008;47.404;8.502;2023-12-04T10:23:21;0.90;99.90
2010;DHT22;1008;47.404;8.502;2023-12-04T10:25:49;1.20;99.90
2010;DHT22;1008;47.404;8.502;2023-12-04T10:28:16;1.60;99.90
2010;DHT22;1008;47.404;8.502;2023-12-04T10:30:44;1.60;99.90
2010;DHT22;1008;47.404;8.502;2023-12-04T10:33:12;1.50;99.90
2010;DHT22;1008;47.404;8.502;2023-12-04T10:35:39;1.80;99.90
2010;DHT22;1008;47.404;8.502;2023-12-04T10:38:07;2.20;99.90
2010;DHT22;1008;47.404;8.502;2023-12-04T10:40:36;2.60;99.90
2010;DHT22;1008;47.404;8.502;2023-12-04T10:43:15;2.60;99.90
2010;DHT22;1008;47.404;8.502;2023-12-04T10:45:43;2.20;99.90
2010;DHT22;1008;47.404;8.502;2023-12-04T10:48:11;1.80;99.90
2010;DHT22;1008;47.404;8.502;2023-12-04T10:50:40;1.50;99.90
2010;DHT22;1008;47.404;8.502;2023-12-04T10:53:07;1.30;99.90
2010;DHT22;1008;47.404;8.502;2023-12-04T10:55:36;1.40;99.90
2010;DHT22;1008;47.404;8.502;2023-12-04T10:58:05;1.40;99.90
2010;DHT22;1008;47.404;8.502;2023-12-04T11:00:34;1.10;99.90
2010;DHT22;1008;47.404;8.502;2023-12-04T11:03:05;1.30;99.90
2010;DHT22;1008;47.404;8.502;2023-12-04T11:05:36;1.40;99.90
2010;DHT22;1008;47.404;8.502;2023-12-04T11:08:05;1.40;99.90
2010;DHT22;1008;47.404;8.502;2023-12-04T11:10:33;1.20;99.90
2010;DHT22;1008;47.404;8.502;2023-12-04T11:13:05;1.20;99.90
2010;DHT22;1008;47.404;8.502;2023-12-04T11:15:37;1.20;99.90
2010;DHT22;1008;47.404;8.502;2023-12-04T11:18:06;1.20;99.90
2010;DHT22;1008;47.404;8.502;2023-12-04T11:20:39;1.40;99.90
2010;DHT22;1008;47.404;8.502;2023-12-04T11:23:08;1.50;99.90
2010;DHT22;1008;47.404;8.502;2023-12-04T11:25:35;1.50;99.90
2010;DHT22;1008;47.404;8.502;2023-12-04T11:28:04;1.60;99.90
2010;DHT22;1008;47.404;8.502;2023-12-04T11:30:31;1.60;99.90
2010;DHT22;1008;47.404;8.502;2023-12-04T11:33:00;1.40;99.90
2010;DHT22;1008;47.404;8.502;2023-12-04T11:35:28;1.50;99.90
2010;DHT22;1008;47.404;8.502;2023-12-04T11:37:54;1.50;99.90
2010;DHT22;1008;47.404;8.502;2023-12-04T11:40:22;1.60;99.90
2010;DHT22;1008;47.404;8.502;2023-12-04T11:42:49;1.80;99.90
2010;DHT22;1008;47.404;8.502;2023-12-04T11:45:20;2.00;99.90
2010;DHT22;1008;47.404;8.502;2023-12-04T11:47:51;1.80;99.90
2010;DHT22;1008;47.404;8.502;2023-12-04T11:50:18;1.60;99.90
2010;DHT22;1008;47.404;8.502;2023-12-04T11:52:46;1.80;99.90
2010;DHT22;1008;47.404;8.502;2023-12-04T11:55:16;1.70;99.90
2010;DHT22;1008;47.404;8.502;2023-12-04T11:57:43;1.40;99.90
2010;DHT22;1008;47.404;8.502;2023-12-04T12:00:13;1.00;99.90
2010;DHT22;1008;47.404;8.502;2023-12-04T12:03:00;1.00;99.90
2010;DHT22;1008;47.404;8.502;2023-12-04T12:05:32;1.10;99.90
2010;DHT22;1008;47.404;8.502;2023-12-04T12:08:01;1.30;99.90
2010;DHT22;1008;47.404;8.502;2023-12-04T12:10:29;1.30;99.90
2010;DHT22;1008;47.404;8.502;2023-12-04T12:12:56;1.10;99.90
2010;DHT22;1008;47.404;8.502;2023-12-04T12:15:24;1.30;99.90
2010;DHT22;1008;47.404;8.502;2023-12-04T12:17:53;1.40;99.90
2010;DHT22;1008;47.404;8.502;2023-12-04T12:20:20;1.50;99.90
2010;DHT22;1008;47.404;8.502;2023-12-04T12:22:48;1.20;99.90
2010;DHT22;1008;47.404;8.502;2023-12-04T12:25:15;1.40;99.90
2010;DHT22;1008;47.404;8.502;2023-12-04T12:27:43;1.60;99.90
2010;DHT22;1008;47.404;8.502;2023-12-04T12:30:11;1.50;99.90
2010;DHT22;1008;47.404;8.502;2023-12-04T12:32:38;1.40;99.90
2010;DHT22;1008;47.404;8.502;2023-12-04T12:35:07;1.30;99.90
2010;DHT22;1008;47.404;8.502;2023-12-04T12:37:34;1.30;99.90
2010;DHT22;1008;47.404;8.502;2023-12-04T12:40:03;1.50;99.90
2010;DHT22;1008;47.404;8.502;2023-12-04T12:42:30;1.50;99.90
2010;DHT22;1008;47.404;8.502;2023-12-04T12:45:00;1.50;99.90
2010;DHT22;1008;47.404;8.502;2023-12-04T12:47:27;1.50;99.90
2010;DHT22;1008;47.404;8.502;2023-12-04T12:49:54;1.60;99.90
2010;DHT22;1008;47.404;8.502;2023-12-04T12:52:22;1.70;99.90
2010;DHT22;1008;47.404;8.502;2023-12-04T12:54:49;1.80;99.90
2010;DHT22;1008;47.404;8.502;2023-12-04T12:57:15;1.80;99.90
2010;DHT22;1008;47.404;8.502;2023-12-04T12:59:42;1.70;99.90
2010;DHT22;1008;47.404;8.502;2023-12-04T13:02:09;1.60;99.90
2010;DHT22;1008;47.404;8.502;2023-12-04T13:04:36;1.50;99.90
2010;DHT22;1008;47.404;8.502;2023-12-04T13:07:04;1.60;99.90
2010;DHT22;1008;47.404;8.502;2023-12-04T13:09:33;1.70;99.90
2010;DHT22;1008;47.404;8.502;2023-12-04T13:12:01;1.60;99.90
2010;DHT22;1008;47.404;8.502;2023-12-04T13:14:28;1.50;99.90
2010;DHT22;1008;47.404;8.502;2023-12-04T13:16:54;1.40;99.90
2010;DHT22;1008;47.404;8.502;2023-12-04T13:19:21;1.50;99.90
2010;DHT22;1008;47.404;8.502;2023-12-04T13:21:48;1.50;99.90
2010;DHT22;1008;47.404;8.502;2023-12-04T13:24:15;1.40;99.90
2010;DHT22;1008;47.404;8.502;2023-12-04T13:26:44;1.40;99.90
2010;DHT22;1008;47.404;8.502;2023-12-04T13:29:11;1.30;99.90
2010;DHT22;1008;47.404;8.502;2023-12-04T13:31:39;1.40;99.90
2010;DHT22;1008;47.404;8.502;2023-12-04T13:34:06;1.40;99.90
2010;DHT22;1008;47.404;8.502;2023-12-04T13:36:33;1.10;99.90
2010;DHT22;1008;47.404;8.502;2023-12-04T13:39:01;1.30;99.90
2010;DHT22;1008;47.404;8.502;2023-12-04T13:41:29;1.10;99.90
2010;DHT22;1008;47.404;8.502;2023-12-04T13:44:15;1.20;99.90
2010;DHT22;1008;47.404;8.502;2023-12-04T13:46:42;1.20;99.90
2010;DHT22;1008;47.404;8.502;2023-12-04T13:49:08;1.10;99.90
2010;DHT22;1008;47.404;8.502;2023-12-04T13:51:35;1.10;99.90
2010;DHT22;1008;47.404;8.502;2023-12-04T13:54:05;1.20;99.90
2010;DHT22;1008;47.404;8.502;2023-12-04T13:56:45;1.20;99.90
2010;DHT22;1008;47.404;8.502;2023-12-04T13:59:20;1.20;99.90
2010;DHT22;1008;47.404;8.502;2023-12-04T14:01:47;1.10;99.90
2010;DHT22;1008;47.404;8.502;2023-12-04T14:04:15;1.20;99.90
2010;DHT22;1008;47.404;8.502;2023-12-04T14:06:41;1.20;99.90
2010;DHT22;1008;47.404;8.502;2023-12-04T14:09:08;1.30;99.90
2010;DHT22;1008;47.404;8.502;2023-12-04T14:11:40;1.10;99.90
2010;DHT22;1008;47.404;8.502;2023-12-04T14:14:07;1.10;99.90
2010;DHT22;1008;47.404;8.502;2023-12-04T14:16:35;1.00;99.90
2010;DHT22;1008;47.404;8.502;2023-12-04T14:19:02;1.10;99.90
2010;DHT22;1008;47.404;8.502;2023-12-04T14:21:29;1.00;99.90
2010;DHT22;1008;47.404;8.502;2023-12-04T14:23:55;0.60;99.90
2010;DHT22;1008;47.404;8.502;2023-12-04T14:26:22;0.80;99.90
2010;DHT22;1008;47.404;8.502;2023-12-04T14:28:50;0.70;99.90
2010;DHT22;1008;47.404;8.502;2023-12-04T14:31:16;0.70;99.90
2010;DHT22;1008;47.404;8.502;2023-12-04T14:33:44;0.80;99.90
2010;DHT22;1008;47.404;8.502;2023-12-04T14:36:11;0.90;99.90
2010;DHT22;1008;47.404;8.502;2023-12-04T14:38:38;0.80;99.90
2010;DHT22;1008;47.404;8.502;2023-12-04T14:41:06;0.80;99.90
2010;DHT22;1008;47.404;8.502;2023-12-04T14:43:35;0.60;99.90
2010;DHT22;1008;47.404;8.502;2023-12-04T14:46:02;0.60;99.90
2010;DHT22;1008;47.404;8.502;2023-12-04T14:48:29;0.70;99.90
2010;DHT22;1008;47.404;8.502;2023-12-04T14:50:57;0.60;99.90
2010;DHT22;1008;47.404;8.502;2023-12-04T14:53:23;0.40;99.90
2010;DHT22;1008;47.404;8.502;2023-12-04T14:55:56;0.30;99.90
2010;DHT22;1008;47.404;8.502;2023-12-04T14:58:56;0.30;99.90
2010;DHT22;1008;47.404;8.502;2023-12-04T15:01:46;0.40;99.90
2010;DHT22;1008;47.404;8.502;2023-12-04T15:04:36;0.40;99.90
2010;DHT22;1008;47.404;8.502;2023-12-04T15:07:36;0.40;99.90
2010;DHT22;1008;47.404;8.502;2023-12-04T15:10:19;0.40;99.90
2010;DHT22;1008;47.404;8.502;2023-12-04T15:13:26;0.40;99.90
2010;DHT22;1008;47.404;8.502;2023-12-04T15:16:19;0.40;99.90
2010;DHT22;1008;47.404;8.502;2023-12-04T15:18:57;0.30;99.90
2010;DHT22;1008;47.404;8.502;2023-12-04T15:21:58;0.40;99.90
2010;DHT22;1008;47.404;8.502;2023-12-04T15:24:25;0.30;99.90
2010;DHT22;1008;47.404;8.502;2023-12-04T15:26:52;0.20;99.90
2010;DHT22;1008;47.404;8.502;2023-12-04T15:29:18;0.40;99.90
2010;DHT22;1008;47.404;8.502;2023-12-04T15:31:46;0.40;99.90
2010;DHT22;1008;47.404;8.502;2023-12-04T15:34:12;0.20;99.90
2010;DHT22;1008;47.404;8.502;2023-12-04T15:36:39;0.30;99.90
2010;DHT22;1008;47.404;8.502;2023-12-04T15:39:05;0.10;99.90
2010;DHT22;1008;47.404;8.502;2023-12-04T15:41:33;0.20;99.90
2010;DHT22;1008;47.404;8.502;2023-12-04T15:43:59;0.10;99.90
2010;DHT22;1008;47.404;8.502;2023-12-04T15:46:25;0.10;99.90
2010;DHT22;1008;47.404;8.502;2023-12-04T15:48:52;0.10;99.90
2010;DHT22;1008;47.404;8.502;2023-12-04T15:51:19;0.20;99.90
2010;DHT22;1008;47.404;8.502;2023-12-04T15:53:46;0.20;99.90
2010;DHT22;1008;47.404;8.502;2023-12-04T15:56:12;0.20;99.90
2010;DHT22;1008;47.404;8.502;2023-12-04T15:58:40;0.00;99.90
2010;DHT22;1008;47.404;8.502;2023-12-04T16:01:06;0.10;99.90
2010;DHT22;1008;47.404;8.502;2023-12-04T16:03:34;0.10;99.90
2010;DHT22;1008;47.404;8.502;2023-12-04T16:06:01;0.00;99.90
2010;DHT22;1008;47.404;8.502;2023-12-04T16:08:27;0.10;99.90
2010;DHT22;1008;47.404;8.502;2023-12-04T16:10:54;0.20;99.90
2010;DHT22;1008;47.404;8.502;2023-12-04T16:13:21;0.20;99.90